sensor_id;sensor_type;location;lat;lon;timestamp;pressure;altitude;pressure_sealevel;temperature;humidity
250;BME280;109;19.806;-70.704;2023-05-31T00:02:00;101134.94;;;28.18;56.27
250;BME280;109;19.806;-70.704;2023-05-31T00:04:27;101137.91;;;28.14;56.66
250;BME280;109;19.806;-70.704;2023-05-31T00:06:53;101142.34;;;28.15;56.73
250;BME280;109;19.806;-70.704;2023-05-31T00:09:20;101141.88;;;28.08;56.39
250;BME280;109;19.806;-70.704;2023-05-31T00:11:46;101159.72;;;28.09;56.76
250;BME280;109;19.806;-70.704;2023-05-31T00:14:13;101161.47;;;28.24;57.22
250;BME280;109;19.806;-70.704;2023-05-31T00:16:39;101158.59;;;28.28;57.41
250;BME280;109;19.806;-70.704;2023-05-31T00:19:06;101165.69;;;28.14;57.51
250;BME280;109;19.806;-70.704;2023-05-31T00:21:32;101173.00;;;28.26;57.48
250;BME280;109;19.806;-70.704;2023-05-31T00:23:58;101176.47;;;28.29;57.71
250;BME280;109;19.806;-70.704;2023-05-31T00:26:25;101182.81;;;28.28;57.49
250;BME280;109;19.806;-70.704;2023-05-31T00:28:52;101177.22;;;28.16;57.72
250;BME280;109;19.806;-70.704;2023-05-31T00:31:26;101184.91;;;28.08;57.91
250;BME280;109;19.806;-70.704;2023-05-31T00:33:52;101186.22;;;28.01;57.95
250;BME280;109;19.806;-70.704;2023-05-31T00:36:25;101186.84;;;27.90;57.69
250;BME280;109;19.806;-70.704;2023-05-31T00:38:51;101189.97;;;27.99;57.95
250;BME280;109;19.806;-70.704;2023-05-31T00:41:32;101188.16;;;27.83;57.79
250;BME280;109;19.806;-70.704;2023-05-31T00:44:05;101194.75;;;27.94;58.09
250;BME280;109;19.806;-70.704;2023-05-31T00:46:33;101192.16;;;27.92;58.01
250;BME280;109;19.806;-70.704;2023-05-31T00:49:06;101201.09;;;27.92;57.77
250;BME280;109;19.806;-70.704;2023-05-31T00:51:35;101199.53;;;27.88;58.06
250;BME280;109;19.806;-70.704;2023-05-31T00:54:09;101209.50;;;27.86;57.80
250;BME280;109;19.806;-70.704;2023-05-31T00:56:36;101215.41;;;27.93;58.06
250;BME280;109;19.806;-70.704;2023-05-31T00:59:10;101214.19;;;27.99;57.83
250;BME280;109;19.806;-70.704;2023-05-31T01:01:38;101220.78;;;27.93;57.88
250;BME280;109;19.806;-70.704;2023-05-31T01:04:15;101219.22;;;27.89;57.90
250;BME280;109;19.806;-70.704;2023-05-31T01:06:49;101224.69;;;27.87;57.55
250;BME280;109;19.806;-70.704;2023-05-31T01:09:20;101229.81;;;27.92;57.86
250;BME280;109;19.806;-70.704;2023-05-31T01:17:40;101232.56;;;28.06;57.78
250;BME280;109;19.806;-70.704;2023-05-31T01:20:20;101231.31;;;28.12;57.55
250;BME280;109;19.806;-70.704;2023-05-31T01:28:50;101236.88;;;28.09;57.58
250;BME280;109;19.806;-70.704;2023-05-31T01:31:27;101245.06;;;28.07;57.61
250;BME280;109;19.806;-70.704;2023-05-31T01:34:04;101240.03;;;28.01;57.71
250;BME280;109;19.806;-70.704;2023-05-31T01:36:31;101238.91;;;28.05;57.82
250;BME280;109;19.806;-70.704;2023-05-31T01:39:06;101245.81;;;28.09;57.63
250;BME280;109;19.806;-70.704;2023-05-31T01:41:55;101244.13;;;28.08;57.53
250;BME280;109;19.806;-70.704;2023-05-31T01:44:32;101247.84;;;28.06;57.09
250;BME280;109;19.806;-70.704;2023-05-31T01:47:07;101255.72;;;28.09;57.39
250;BME280;109;19.806;-70.704;2023-05-31T01:49:38;101256.41;;;28.12;57.16
250;BME280;109;19.806;-70.704;2023-05-31T01:52:15;101259.09;;;28.12;57.38
250;BME280;109;19.806;-70.704;2023-05-31T01:54:42;101259.97;;;28.13;57.04
250;BME280;109;19.806;-70.704;2023-05-31T01:57:16;101252.38;;;28.05;57.07
250;BME280;109;19.806;-70.704;2023-05-31T01:59:45;101264.00;;;28.06;57.38
250;BME280;109;19.806;-70.704;2023-05-31T02:02:19;101255.94;;;28.06;57.66
250;BME280;109;19.806;-70.704;2023-05-31T02:04:46;101261.22;;;28.07;57.80
250;BME280;109;19.806;-70.704;2023-05-31T02:07:19;101269.88;;;28.12;57.57
250;BME280;109;19.806;-70.704;2023-05-31T02:09:47;101260.34;;;28.07;57.57
250;BME280;109;19.806;-70.704;2023-05-31T02:12:27;101260.78;;;27.99;57.61
250;BME280;109;19.806;-70.704;2023-05-31T02:15:01;101263.84;;;27.93;57.37
250;BME280;109;19.806;-70.704;2023-05-31T02:17:29;101258.44;;;27.93;57.54
250;BME280;109;19.806;-70.704;2023-05-31T02:20:07;101267.31;;;27.95;57.57
250;BME280;109;19.806;-70.704;2023-05-31T02:22:33;101274.41;;;27.96;57.41
250;BME280;109;19.806;-70.704;2023-05-31T02:25:11;101272.69;;;27.95;57.71
250;BME280;109;19.806;-70.704;2023-05-31T02:27:44;101269.22;;;27.93;57.52
250;BME280;109;19.806;-70.704;2023-05-31T02:30:11;101264.69;;;27.94;57.49
250;BME280;109;19.806;-70.704;2023-05-31T02:32:44;101267.38;;;27.94;57.87
250;BME280;109;19.806;-70.704;2023-05-31T02:35:11;101264.63;;;27.95;57.81
250;BME280;109;19.806;-70.704;2023-05-31T02:37:44;101274.69;;;27.91;57.46
250;BME280;109;19.806;-70.704;2023-05-31T02:40:30;101268.34;;;27.92;57.21
250;BME280;109;19.806;-70.704;2023-05-31T02:43:13;101268.25;;;27.94;56.94
250;BME280;109;19.806;-70.704;2023-05-31T02:45:46;101269.72;;;27.84;57.21
250;BME280;109;19.806;-70.704;2023-05-31T02:48:13;101268.38;;;27.77;57.45
250;BME280;109;19.806;-70.704;2023-05-31T02:50:46;101267.81;;;27.86;57.55
250;BME280;109;19.806;-70.704;2023-05-31T02:53:39;101270.97;;;27.78;57.36
250;BME280;109;19.806;-70.704;2023-05-31T02:56:17;101269.94;;;27.81;57.70
250;BME280;109;19.806;-70.704;2023-05-31T02:59:20;101279.75;;;27.82;57.19
250;BME280;109;19.806;-70.704;2023-05-31T03:02:03;101278.97;;;27.80;57.64
250;BME280;109;19.806;-70.704;2023-05-31T03:05:15;101281.66;;;27.80;57.60
250;BME280;109;19.806;-70.704;2023-05-31T03:07:49;101279.13;;;27.77;57.23
250;BME280;109;19.806;-70.704;2023-05-31T03:10:16;101283.56;;;27.78;57.38
250;BME280;109;19.806;-70.704;2023-05-31T03:12:56;101284.69;;;27.74;57.08
250;BME280;109;19.806;-70.704;2023-05-31T03:15:30;101290.06;;;27.74;57.49
250;BME280;109;19.806;-70.704;2023-05-31T03:17:56;101284.84;;;27.71;57.52
250;BME280;109;19.806;-70.704;2023-05-31T03:20:31;101280.19;;;27.74;57.68
250;BME280;109;19.806;-70.704;2023-05-31T03:22:58;101279.31;;;27.74;57.91
250;BME280;109;19.806;-70.704;2023-05-31T03:25:34;101274.31;;;27.68;58.03
250;BME280;109;19.806;-70.704;2023-05-31T03:28:00;101279.84;;;27.65;57.51
250;BME280;109;19.806;-70.704;2023-05-31T03:30:35;101276.63;;;27.58;57.54
250;BME280;109;19.806;-70.704;2023-05-31T03:33:02;101270.06;;;27.64;57.42
250;BME280;109;19.806;-70.704;2023-05-31T03:35:35;101271.63;;;27.68;57.78
250;BME280;109;19.806;-70.704;2023-05-31T03:38:03;101273.44;;;27.67;57.83
250;BME280;109;19.806;-70.704;2023-05-31T03:40:36;101274.56;;;27.63;57.80
250;BME280;109;19.806;-70.704;2023-05-31T03:43:23;101270.84;;;27.66;57.58
250;BME280;109;19.806;-70.704;2023-05-31T03:45:56;101271.19;;;27.60;57.81
250;BME280;109;19.806;-70.704;2023-05-31T03:48:33;101272.91;;;27.61;57.79
250;BME280;109;19.806;-70.704;2023-05-31T03:51:00;101266.16;;;27.53;58.02
250;BME280;109;19.806;-70.704;2023-05-31T03:53:33;101267.69;;;27.58;57.71
250;BME280;109;19.806;-70.704;2023-05-31T03:56:01;101273.38;;;27.53;57.13
250;BME280;109;19.806;-70.704;2023-05-31T03:58:34;101270.31;;;27.59;57.49
250;BME280;109;19.806;-70.704;2023-05-31T04:01:00;101258.50;;;27.62;57.69
250;BME280;109;19.806;-70.704;2023-05-31T04:03:35;101265.28;;;27.69;57.40
250;BME280;109;19.806;-70.704;2023-05-31T04:06:02;101266.22;;;27.68;57.98
250;BME280;109;19.806;-70.704;2023-05-31T04:08:36;101263.34;;;27.71;57.59
250;BME280;109;19.806;-70.704;2023-05-31T04:11:03;101272.56;;;27.67;57.67
250;BME280;109;19.806;-70.704;2023-05-31T04:13:43;101260.94;;;27.66;57.53
250;BME280;109;19.806;-70.704;2023-05-31T04:16:17;101250.28;;;27.65;57.59
250;BME280;109;19.806;-70.704;2023-05-31T04:18:43;101252.00;;;27.66;57.82
250;BME280;109;19.806;-70.704;2023-05-31T04:21:17;101251.22;;;27.64;57.86
250;BME280;109;19.806;-70.704;2023-05-31T04:23:45;101250.44;;;27.62;58.23
250;BME280;109;19.806;-70.704;2023-05-31T04:26:18;101246.19;;;27.58;58.34
250;BME280;109;19.806;-70.704;2023-05-31T04:28:47;101240.63;;;27.61;57.98
250;BME280;109;19.806;-70.704;2023-05-31T04:31:24;101244.81;;;27.50;58.09
250;BME280;109;19.806;-70.704;2023-05-31T04:33:51;101243.78;;;27.53;58.05
250;BME280;109;19.806;-70.704;2023-05-31T04:36:29;101233.91;;;27.53;57.53
250;BME280;109;19.806;-70.704;2023-05-31T04:38:59;101220.81;;;27.47;57.82
250;BME280;109;19.806;-70.704;2023-05-31T04:41:32;101220.72;;;27.49;57.77
250;BME280;109;19.806;-70.704;2023-05-31T04:44:19;101214.47;;;27.48;57.89
250;BME280;109;19.806;-70.704;2023-05-31T04:46:54;101217.50;;;27.42;57.92
250;BME280;109;19.806;-70.704;2023-05-31T04:49:21;101215.41;;;27.32;57.93
250;BME280;109;19.806;-70.704;2023-05-31T04:51:55;101211.59;;;27.36;57.96
250;BME280;109;19.806;-70.704;2023-05-31T04:54:22;101205.19;;;27.38;58.01
250;BME280;109;19.806;-70.704;2023-05-31T04:56:56;101205.97;;;27.40;58.08
250;BME280;109;19.806;-70.704;2023-05-31T04:59:24;101203.69;;;27.33;57.83
250;BME280;109;19.806;-70.704;2023-05-31T05:01:58;101197.13;;;27.38;58.01
250;BME280;109;19.806;-70.704;2023-05-31T05:04:25;101189.91;;;27.39;58.17
250;BME280;109;19.806;-70.704;2023-05-31T05:06:58;101191.34;;;27.30;58.08
250;BME280;109;19.806;-70.704;2023-05-31T05:09:25;101192.28;;;27.29;57.86
250;BME280;109;19.806;-70.704;2023-05-31T05:11:58;101192.28;;;27.29;58.32
250;BME280;109;19.806;-70.704;2023-05-31T05:14:33;101186.53;;;27.35;57.30
250;BME280;109;19.806;-70.704;2023-05-31T05:17:06;101187.31;;;27.37;57.32
250;BME280;109;19.806;-70.704;2023-05-31T05:19:33;101184.53;;;27.39;57.48
250;BME280;109;19.806;-70.704;2023-05-31T05:22:09;101171.97;;;27.39;57.78
250;BME280;109;19.806;-70.704;2023-05-31T05:24:43;101165.81;;;27.37;57.75
250;BME280;109;19.806;-70.704;2023-05-31T05:27:10;101168.34;;;27.40;57.74
250;BME280;109;19.806;-70.704;2023-05-31T05:29:45;101170.78;;;27.29;58.43
250;BME280;109;19.806;-70.704;2023-05-31T05:32:13;101164.53;;;27.29;57.42
250;BME280;109;19.806;-70.704;2023-05-31T05:34:46;101159.84;;;27.32;57.39
250;BME280;109;19.806;-70.704;2023-05-31T05:37:13;101164.25;;;27.33;57.59
250;BME280;109;19.806;-70.704;2023-05-31T05:39:47;101160.03;;;27.29;57.03
250;BME280;109;19.806;-70.704;2023-05-31T05:42:33;101164.53;;;27.29;56.87
250;BME280;109;19.806;-70.704;2023-05-31T05:45:10;101162.91;;;27.26;56.90
250;BME280;109;19.806;-70.704;2023-05-31T05:47:38;101157.44;;;27.28;57.05
250;BME280;109;19.806;-70.704;2023-05-31T05:50:12;101156.41;;;27.30;56.95
250;BME280;109;19.806;-70.704;2023-05-31T05:52:38;101152.94;;;27.28;57.21
250;BME280;109;19.806;-70.704;2023-05-31T05:55:11;101149.19;;;27.31;57.80
250;BME280;109;19.806;-70.704;2023-05-31T05:57:48;101152.94;;;27.28;58.20
250;BME280;109;19.806;-70.704;2023-05-31T06:01:01;101141.56;;;27.23;58.80
250;BME280;109;19.806;-70.704;2023-05-31T06:03:38;101133.50;;;27.23;58.61
250;BME280;109;19.806;-70.704;2023-05-31T06:06:11;101124.25;;;27.13;58.16
250;BME280;109;19.806;-70.704;2023-05-31T06:08:38;101137.16;;;27.06;58.71
250;BME280;109;19.806;-70.704;2023-05-31T06:11:12;101123.31;;;26.98;58.48
250;BME280;109;19.806;-70.704;2023-05-31T06:13:39;101131.78;;;26.91;57.88
250;BME280;109;19.806;-70.704;2023-05-31T06:16:14;101120.44;;;26.85;58.41
250;BME280;109;19.806;-70.704;2023-05-31T06:18:43;101118.78;;;26.83;58.23
250;BME280;109;19.806;-70.704;2023-05-31T06:21:17;101119.66;;;26.83;57.28
250;BME280;109;19.806;-70.704;2023-05-31T06:23:45;101122.94;;;26.89;57.46
250;BME280;109;19.806;-70.704;2023-05-31T06:26:18;101118.28;;;26.92;56.74
250;BME280;109;19.806;-70.704;2023-05-31T06:28:45;101107.19;;;26.98;56.31
250;BME280;109;19.806;-70.704;2023-05-31T06:31:47;101115.16;;;27.00;56.44
250;BME280;109;19.806;-70.704;2023-05-31T06:34:20;101114.56;;;26.95;56.34
250;BME280;109;19.806;-70.704;2023-05-31T06:36:47;101114.47;;;26.96;56.48
250;BME280;109;19.806;-70.704;2023-05-31T06:39:20;101103.19;;;27.05;56.23
250;BME280;109;19.806;-70.704;2023-05-31T06:42:07;101102.22;;;27.06;56.49
250;BME280;109;19.806;-70.704;2023-05-31T06:44:46;101104.84;;;27.08;56.72
250;BME280;109;19.806;-70.704;2023-05-31T06:47:31;101099.63;;;27.05;56.56
250;BME280;109;19.806;-70.704;2023-05-31T06:50:30;101107.34;;;27.11;56.70
250;BME280;109;19.806;-70.704;2023-05-31T06:53:26;101107.81;;;27.03;56.43
250;BME280;109;19.806;-70.704;2023-05-31T06:56:12;101110.22;;;26.92;57.04
250;BME280;109;19.806;-70.704;2023-05-31T06:58:46;101098.53;;;26.93;56.96
250;BME280;109;19.806;-70.704;2023-05-31T07:01:12;101092.47;;;26.90;57.44
250;BME280;109;19.806;-70.704;2023-05-31T07:03:45;101094.19;;;26.91;57.14
250;BME280;109;19.806;-70.704;2023-05-31T07:06:11;101093.06;;;26.95;57.54
250;BME280;109;19.806;-70.704;2023-05-31T07:08:45;101095.97;;;26.92;57.59
250;BME280;109;19.806;-70.704;2023-05-31T07:11:41;101084.41;;;26.90;57.56
250;BME280;109;19.806;-70.704;2023-05-31T07:14:15;101092.72;;;26.85;57.26
250;BME280;109;19.806;-70.704;2023-05-31T07:16:42;101085.00;;;26.79;57.63
250;BME280;109;19.806;-70.704;2023-05-31T07:19:15;101083.53;;;26.73;57.75
250;BME280;109;19.806;-70.704;2023-05-31T07:21:42;101076.19;;;26.61;57.36
250;BME280;109;19.806;-70.704;2023-05-31T07:24:15;101078.63;;;26.66;58.26
250;BME280;109;19.806;-70.704;2023-05-31T07:26:41;101084.00;;;26.66;58.07
250;BME280;109;19.806;-70.704;2023-05-31T07:29:14;101089.25;;;26.67;58.48
250;BME280;109;19.806;-70.704;2023-05-31T07:31:41;101084.66;;;26.69;58.91
250;BME280;109;19.806;-70.704;2023-05-31T07:34:14;101078.50;;;26.67;58.36
250;BME280;109;19.806;-70.704;2023-05-31T07:36:48;101073.59;;;26.75;58.76
250;BME280;109;19.806;-70.704;2023-05-31T07:39:23;101074.94;;;26.67;58.04
250;BME280;109;19.806;-70.704;2023-05-31T07:42:11;101077.75;;;26.65;58.44
250;BME280;109;19.806;-70.704;2023-05-31T07:44:45;101075.47;;;26.73;58.16
250;BME280;109;19.806;-70.704;2023-05-31T07:47:15;101082.59;;;26.74;58.65
250;BME280;109;19.806;-70.704;2023-05-31T07:49:48;101079.91;;;26.74;58.53
250;BME280;109;19.806;-70.704;2023-05-31T07:52:17;101078.50;;;26.67;58.80
250;BME280;109;19.806;-70.704;2023-05-31T07:54:54;101084.06;;;26.64;58.01
250;BME280;109;19.806;-70.704;2023-05-31T07:57:21;101095.69;;;26.65;58.04
250;BME280;109;19.806;-70.704;2023-05-31T07:59:57;101085.88;;;26.64;58.20
250;BME280;109;19.806;-70.704;2023-05-31T08:02:23;101096.72;;;26.62;58.37
250;BME280;109;19.806;-70.704;2023-05-31T08:04:56;101095.84;;;26.62;58.21
250;BME280;109;19.806;-70.704;2023-05-31T08:07:34;101094.34;;;26.56;58.58
250;BME280;109;19.806;-70.704;2023-05-31T08:10:01;101091.66;;;26.56;58.34
250;BME280;109;19.806;-70.704;2023-05-31T08:12:34;101094.88;;;26.47;58.28
250;BME280;109;19.806;-70.704;2023-05-31T08:15:00;101098.19;;;26.52;58.52
250;BME280;109;19.806;-70.704;2023-05-31T08:17:33;101102.50;;;26.39;58.45
250;BME280;109;19.806;-70.704;2023-05-31T08:20:00;101098.75;;;26.41;58.80
250;BME280;109;19.806;-70.704;2023-05-31T08:22:33;101102.94;;;26.47;58.44
250;BME280;109;19.806;-70.704;2023-05-31T08:25:00;101100.09;;;26.50;58.56
250;BME280;109;19.806;-70.704;2023-05-31T08:27:33;101102.78;;;26.50;58.48
250;BME280;109;19.806;-70.704;2023-05-31T08:30:11;101094.72;;;26.50;58.32
250;BME280;109;19.806;-70.704;2023-05-31T08:32:44;101108.38;;;26.45;58.61
250;BME280;109;19.806;-70.704;2023-05-31T08:35:11;101106.47;;;26.47;58.67
250;BME280;109;19.806;-70.704;2023-05-31T08:37:44;101107.94;;;26.53;58.36
250;BME280;109;19.806;-70.704;2023-05-31T08:40:31;101104.41;;;26.53;57.97
250;BME280;109;19.806;-70.704;2023-05-31T08:43:09;101112.19;;;26.57;58.01
250;BME280;109;19.806;-70.704;2023-05-31T08:45:50;101119.47;;;26.55;58.75
250;BME280;109;19.806;-70.704;2023-05-31T08:48:38;101121.38;;;26.53;58.89
250;BME280;109;19.806;-70.704;2023-05-31T08:51:14;101123.81;;;26.58;58.88
250;BME280;109;19.806;-70.704;2023-05-31T08:53:41;101135.41;;;26.58;58.64
250;BME280;109;19.806;-70.704;2023-05-31T08:56:15;101137.22;;;26.58;58.22
250;BME280;109;19.806;-70.704;2023-05-31T08:58:43;101138.69;;;26.47;58.43
250;BME280;109;19.806;-70.704;2023-05-31T09:01:20;101140.38;;;26.33;58.08
250;BME280;109;19.806;-70.704;2023-05-31T09:03:54;101144.63;;;26.37;58.24
250;BME280;109;19.806;-70.704;2023-05-31T09:06:20;101148.66;;;26.28;58.29
250;BME280;109;19.806;-70.704;2023-05-31T09:08:53;101151.97;;;26.33;58.66
250;BME280;109;19.806;-70.704;2023-05-31T09:11:22;101150.16;;;26.34;58.51
250;BME280;109;19.806;-70.704;2023-05-31T09:13:56;101153.00;;;26.31;58.34
250;BME280;109;19.806;-70.704;2023-05-31T09:16:23;101153.00;;;26.31;58.46
250;BME280;109;19.806;-70.704;2023-05-31T09:19:03;101150.47;;;26.28;58.86
250;BME280;109;19.806;-70.704;2023-05-31T09:21:43;101156.97;;;26.24;58.71
250;BME280;109;19.806;-70.704;2023-05-31T09:24:19;101153.41;;;26.23;58.98
250;BME280;109;19.806;-70.704;2023-05-31T09:26:47;101156.03;;;26.25;59.06
250;BME280;109;19.806;-70.704;2023-05-31T09:29:20;101151.91;;;26.17;59.17
250;BME280;109;19.806;-70.704;2023-05-31T09:32:08;101160.03;;;26.16;58.67
250;BME280;109;19.806;-70.704;2023-05-31T09:34:41;101161.25;;;26.10;59.26
250;BME280;109;19.806;-70.704;2023-05-31T09:37:08;101162.34;;;26.06;59.51
250;BME280;109;19.806;-70.704;2023-05-31T09:39:54;101167.72;;;26.06;59.39
250;BME280;109;19.806;-70.704;2023-05-31T09:42:47;101162.44;;;26.05;59.46
250;BME280;109;19.806;-70.704;2023-05-31T09:45:22;101162.84;;;25.97;59.34
250;BME280;109;19.806;-70.704;2023-05-31T09:47:49;101160.69;;;26.04;59.44
250;BME280;109;19.806;-70.704;2023-05-31T09:50:31;101167.00;;;26.03;59.89
250;BME280;109;19.806;-70.704;2023-05-31T09:53:04;101162.47;;;25.88;59.75
250;BME280;109;19.806;-70.704;2023-05-31T09:55:40;101159.69;;;25.89;59.81
250;BME280;109;19.806;-70.704;2023-05-31T09:58:28;101160.63;;;25.88;59.85
250;BME280;109;19.806;-70.704;2023-05-31T10:01:04;101166.44;;;25.79;60.46
250;BME280;109;19.806;-70.704;2023-05-31T10:03:32;101161.94;;;25.79;60.41
250;BME280;109;19.806;-70.704;2023-05-31T10:06:07;101164.72;;;25.78;60.47
250;BME280;109;19.806;-70.704;2023-05-31T10:08:34;101166.78;;;25.73;60.20
250;BME280;109;19.806;-70.704;2023-05-31T10:11:06;101167.81;;;25.70;60.14
250;BME280;109;19.806;-70.704;2023-05-31T10:13:35;101166.47;;;25.62;60.86
250;BME280;109;19.806;-70.704;2023-05-31T10:16:10;101167.56;;;25.58;60.90
250;BME280;109;19.806;-70.704;2023-05-31T10:18:38;101166.91;;;25.53;60.74
250;BME280;109;19.806;-70.704;2023-05-31T10:21:22;101169.91;;;25.64;61.27
250;BME280;109;19.806;-70.704;2023-05-31T10:24:17;101159.84;;;25.69;60.55
250;BME280;109;19.806;-70.704;2023-05-31T10:27:00;101159.19;;;25.81;60.19
250;BME280;109;19.806;-70.704;2023-05-31T10:29:48;101167.56;;;25.92;59.94
250;BME280;109;19.806;-70.704;2023-05-31T10:32:42;101159.16;;;26.00;59.47
250;BME280;109;19.806;-70.704;2023-05-31T10:35:18;101166.00;;;26.05;59.63
250;BME280;109;19.806;-70.704;2023-05-31T10:41:08;101178.56;;;26.38;59.01
250;BME280;109;19.806;-70.704;2023-05-31T10:44:12;101177.72;;;26.53;58.79
250;BME280;109;19.806;-70.704;2023-05-31T10:46:51;101184.56;;;26.43;58.71
250;BME280;109;19.806;-70.704;2023-05-31T10:49:31;101190.09;;;26.40;58.08
250;BME280;109;19.806;-70.704;2023-05-31T10:52:09;101182.66;;;26.45;58.40
250;BME280;109;19.806;-70.704;2023-05-31T10:54:36;101199.13;;;26.55;58.09
250;BME280;109;19.806;-70.704;2023-05-31T10:57:12;101197.44;;;26.69;57.79
250;BME280;109;19.806;-70.704;2023-05-31T10:59:44;101202.41;;;26.77;58.01
250;BME280;109;19.806;-70.704;2023-05-31T11:02:11;101209.78;;;26.89;57.06
250;BME280;109;19.806;-70.704;2023-05-31T11:04:37;101209.44;;;27.11;57.04
250;BME280;109;19.806;-70.704;2023-05-31T11:07:21;101216.28;;;27.32;56.69
250;BME280;109;19.806;-70.704;2023-05-31T11:09:54;101214.13;;;27.39;56.67
250;BME280;109;19.806;-70.704;2023-05-31T11:12:40;101213.75;;;27.61;56.35
250;BME280;109;19.806;-70.704;2023-05-31T11:15:12;101219.97;;;27.77;56.07
250;BME280;109;19.806;-70.704;2023-05-31T11:17:53;101224.00;;;27.84;55.76
250;BME280;109;19.806;-70.704;2023-05-31T11:20:21;101231.38;;;27.96;55.55
250;BME280;109;19.806;-70.704;2023-05-31T11:23:23;101221.81;;;28.06;54.55
250;BME280;109;19.806;-70.704;2023-05-31T11:34:18;101223.13;;;28.86;53.33
250;BME280;109;19.806;-70.704;2023-05-31T11:36:44;101217.63;;;29.02;53.34
250;BME280;109;19.806;-70.704;2023-05-31T11:39:12;101212.34;;;29.00;53.29
250;BME280;109;19.806;-70.704;2023-05-31T11:41:39;101226.56;;;28.88;52.39
250;BME280;109;19.806;-70.704;2023-05-31T11:44:07;101228.63;;;28.99;52.39
250;BME280;109;19.806;-70.704;2023-05-31T11:46:42;101231.97;;;29.02;52.41
250;BME280;109;19.806;-70.704;2023-05-31T11:49:11;101241.56;;;28.92;53.34
250;BME280;109;19.806;-70.704;2023-05-31T11:51:45;101232.91;;;28.87;53.81
250;BME280;109;19.806;-70.704;2023-05-31T11:54:11;101234.97;;;28.83;54.41
250;BME280;109;19.806;-70.704;2023-05-31T11:56:40;101240.81;;;28.90;54.75
250;BME280;109;19.806;-70.704;2023-05-31T11:59:07;101238.41;;;29.00;54.80
250;BME280;109;19.806;-70.704;2023-05-31T12:01:38;101250.03;;;29.14;53.75
250;BME280;109;19.806;-70.704;2023-05-31T12:04:07;101241.81;;;29.30;53.63
250;BME280;109;19.806;-70.704;2023-05-31T12:06:34;101245.72;;;29.39;53.29
250;BME280;109;19.806;-70.704;2023-05-31T12:09:01;101240.81;;;29.45;53.35
250;BME280;109;19.806;-70.704;2023-05-31T12:11:29;101239.88;;;29.46;53.53
250;BME280;109;19.806;-70.704;2023-05-31T12:13:56;101243.47;;;29.33;52.91
250;BME280;109;19.806;-70.704;2023-05-31T12:16:25;101252.56;;;29.44;53.33
250;BME280;109;19.806;-70.704;2023-05-31T12:18:53;101247.59;;;29.38;53.84
250;BME280;109;19.806;-70.704;2023-05-31T12:21:20;101250.53;;;29.21;53.99
250;BME280;109;19.806;-70.704;2023-05-31T12:26:20;101256.63;;;28.96;53.84
250;BME280;109;19.806;-70.704;2023-05-31T12:28:47;101258.63;;;29.07;54.48
250;BME280;109;19.806;-70.704;2023-05-31T12:31:24;101264.97;;;29.06;53.88
250;BME280;109;19.806;-70.704;2023-05-31T12:36:49;101266.66;;;29.35;53.66
250;BME280;109;19.806;-70.704;2023-05-31T12:39:21;101264.72;;;29.37;53.22
250;BME280;109;19.806;-70.704;2023-05-31T12:41:49;101260.84;;;29.41;52.72
250;BME280;109;19.806;-70.704;2023-05-31T12:44:20;101269.91;;;29.40;53.28
250;BME280;109;19.806;-70.704;2023-05-31T12:46:48;101261.59;;;29.57;53.29
250;BME280;109;19.806;-70.704;2023-05-31T12:49:20;101268.97;;;29.68;53.48
250;BME280;109;19.806;-70.704;2023-05-31T12:52:04;101271.38;;;29.73;53.38
250;BME280;109;19.806;-70.704;2023-05-31T12:54:34;101266.06;;;29.71;52.83
250;BME280;109;19.806;-70.704;2023-05-31T12:57:05;101275.34;;;29.67;53.45
250;BME280;109;19.806;-70.704;2023-05-31T12:59:33;101270.38;;;29.61;53.19
250;BME280;109;19.806;-70.704;2023-05-31T13:02:00;101270.66;;;29.42;53.97
250;BME280;109;19.806;-70.704;2023-05-31T13:04:27;101267.31;;;29.12;53.87
250;BME280;109;19.806;-70.704;2023-05-31T13:06:54;101271.66;;;29.27;54.12
250;BME280;109;19.806;-70.704;2023-05-31T13:09:20;101271.94;;;29.51;54.43
250;BME280;109;19.806;-70.704;2023-05-31T13:11:47;101278.41;;;29.48;53.79
250;BME280;109;19.806;-70.704;2023-05-31T13:14:20;101276.47;;;29.77;54.14
250;BME280;109;19.806;-70.704;2023-05-31T13:16:48;101276.72;;;29.87;52.04
250;BME280;109;19.806;-70.704;2023-05-31T13:19:15;101268.34;;;30.04;51.88
250;BME280;109;19.806;-70.704;2023-05-31T13:21:42;101265.53;;;30.06;51.30
250;BME280;109;19.806;-70.704;2023-05-31T13:24:08;101266.31;;;30.20;51.13
250;BME280;109;19.806;-70.704;2023-05-31T13:26:36;101268.03;;;30.09;51.12
250;BME280;109;19.806;-70.704;2023-05-31T13:29:03;101271.03;;;30.04;51.04
250;BME280;109;19.806;-70.704;2023-05-31T13:31:31;101265.47;;;29.93;51.38
250;BME280;109;19.806;-70.704;2023-05-31T13:33:57;101266.75;;;30.02;51.44
250;BME280;109;19.806;-70.704;2023-05-31T13:36:24;101260.78;;;29.96;52.00
250;BME280;109;19.806;-70.704;2023-05-31T13:38:51;101267.03;;;29.97;53.39
250;BME280;109;19.806;-70.704;2023-05-31T13:41:18;101271.84;;;29.92;53.73
250;BME280;109;19.806;-70.704;2023-05-31T13:43:48;101261.81;;;29.94;51.71
250;BME280;109;19.806;-70.704;2023-05-31T13:46:15;101271.19;;;30.15;52.44
250;BME280;109;19.806;-70.704;2023-05-31T13:48:43;101262.81;;;30.58;51.81
250;BME280;109;19.806;-70.704;2023-05-31T13:51:10;101268.84;;;30.74;50.88
250;BME280;109;19.806;-70.704;2023-05-31T13:53:38;101270.25;;;30.80;49.51
250;BME280;109;19.806;-70.704;2023-05-31T13:56:06;101257.81;;;31.02;50.72
250;BME280;109;19.806;-70.704;2023-05-31T13:58:35;101255.09;;;31.02;50.42
250;BME280;109;19.806;-70.704;2023-05-31T14:01:05;101259.84;;;30.86;49.36
250;BME280;109;19.806;-70.704;2023-05-31T14:03:36;101259.84;;;30.86;50.90
250;BME280;109;19.806;-70.704;2023-05-31T14:06:02;101251.97;;;30.83;50.31
250;BME280;109;19.806;-70.704;2023-05-31T14:08:29;101251.53;;;30.89;51.90
250;BME280;109;19.806;-70.704;2023-05-31T14:10:56;101247.53;;;30.82;51.72